Time;durP1;ratioP1;P1;durP2;ratioP2;P2;SDS_P1;SDS_P2;PMS_P1;PMS_P2;Temp;Humidity;BMP_temperature;BMP_pressure;BME280_temperature;BME280_humidity;BME280_pressure;Samples;Min_cycle;Max_cycle;Signal;HPM_P1;HPM_P2
2021/06/07 00:01:41;;;;;;;31.85;28.05;;;16.70;99.90;;;;;;5063681;28;20025;-72
2021/06/07 00:04:08;;;;;;;33.65;30.10;;;16.80;99.90;;;;;;5066754;28;20036;-72
2021/06/07 00:06:35;;;;;;;36.80;31.63;;;16.80;99.90;;;;;;5062981;28;20048;-72
2021/06/07 00:09:04;;;;;;;35.30;30.40;;;16.70;99.90;;;;;;5051398;28;20021;-73
2021/06/07 00:11:29;;;;;;;32.63;29.15;;;16.70;99.90;;;;;;5059473;28;20030;-72
2021/06/07 00:13:55;;;;;;;40.00;33.13;;;16.70;99.90;;;;;;5058011;28;20401;-73
2021/06/07 00:16:21;;;;;;;41.17;33.65;;;16.80;99.90;;;;;;5062841;28;20025;-73
2021/06/07 00:18:46;;;;;;;40.47;32.97;;;16.70;99.90;;;;;;5063856;28;20482;-73
2021/06/07 00:21:23;;;;;;;46.85;36.35;;;16.70;99.90;;;;;;5059995;28;20020;-73
2021/06/07 00:23:49;;;;;;;46.92;36.97;;;16.70;99.90;;;;;;5068383;28;20036;-73
2021/06/07 00:26:15;;;;;;;44.65;35.65;;;16.60;99.90;;;;;;5061436;28;20099;-72
2021/06/07 00:28:41;;;;;;;50.80;38.28;;;16.50;99.90;;;;;;5054766;28;20063;-73
2021/06/07 00:31:08;;;;;;;42.78;34.90;;;16.50;99.90;;;;;;5051362;28;20020;-73
2021/06/07 00:33:34;;;;;;;48.08;37.38;;;16.50;99.90;;;;;;5068190;28;20525;-73
2021/06/07 00:36:01;;;;;;;48.13;38.38;;;16.50;99.90;;;;;;5061332;28;20044;-74
2021/06/07 00:38:27;;;;;;;48.33;38.47;;;16.50;99.90;;;;;;5068384;28;20021;-73
2021/06/07 00:40:54;;;;;;;53.05;39.47;;;16.60;99.90;;;;;;5060821;28;20107;-74
2021/06/07 00:43:19;;;;;;;46.92;37.33;;;16.50;99.90;;;;;;5064658;28;20036;-73
2021/06/07 00:45:45;;;;;;;47.50;36.22;;;16.60;99.90;;;;;;5061787;28;20025;-73
2021/06/07 00:48:10;;;;;;;52.40;37.88;;;16.60;99.90;;;;;;5056648;28;20082;-73
2021/06/07 00:50:38;;;;;;;49.22;37.60;;;16.60;99.90;;;;;;5060831;28;20031;-71
2021/06/07 00:53:06;;;;;;;54.60;39.28;;;16.60;99.90;;;;;;5064624;28;20029;-72
2021/06/07 00:55:41;;;;;;;55.55;41.28;;;16.60;99.90;;;;;;5063228;28;20432;-73
2021/06/07 00:58:09;;;;;;;52.55;40.50;;;16.60;99.90;;;;;;5067843;28;20024;-74
2021/06/07 01:00:36;;;;;;;55.03;40.58;;;16.60;99.90;;;;;;5061720;28;20482;-72
2021/06/07 01:03:03;;;;;;;49.47;38.72;;;16.60;99.90;;;;;;5073889;28;20028;-72
2021/06/07 01:05:29;;;;;;;53.30;39.45;;;16.60;99.90;;;;;;5080411;22;22072;-74
2021/06/07 01:07:55;;;;;;;49.78;38.45;;;16.70;99.90;;;;;;5089914;28;20031;-74
2021/06/07 01:10:22;;;;;;;46.97;37.65;;;16.70;99.90;;;;;;5073542;28;20108;-74
2021/06/07 01:12:48;;;;;;;62.03;43.67;;;16.80;99.90;;;;;;5074682;28;20462;-75
2021/06/07 01:15:15;;;;;;;53.50;40.97;;;16.80;99.90;;;;;;5075833;28;20393;-74
2021/06/07 01:17:41;;;;;;;57.10;41.35;;;16.90;99.90;;;;;;5094227;28;20049;-74
2021/06/07 01:20:09;;;;;;;47.80;38.70;;;16.70;99.90;;;;;;5093867;28;20335;-75
2021/06/07 01:22:35;;;;;;;51.10;40.35;;;16.70;99.90;;;;;;5075040;28;20025;-76
2021/06/07 01:25:01;;;;;;;55.20;41.78;;;16.80;99.90;;;;;;5074428;28;20039;-75
2021/06/07 01:27:27;;;;;;;51.78;39.30;;;16.70;99.90;;;;;;5074490;28;20025;-76
2021/06/07 01:29:52;;;;;;;45.88;36.88;;;16.70;99.90;;;;;;5074270;28;20020;-75
2021/06/07 01:32:18;;;;;;;53.65;39.47;;;16.80;99.90;;;;;;5074540;28;20066;-77
2021/06/07 01:34:44;;;;;;;50.15;37.83;;;16.80;99.90;;;;;;5073254;28;20024;-76
2021/06/07 01:37:09;;;;;;;50.53;37.78;;;16.80;99.90;;;;;;5074267;28;20062;-76
2021/06/07 01:39:35;;;;;;;41.28;34.38;;;16.70;99.90;;;;;;5074306;28;20040;-76
2021/06/07 01:42:01;;;;;;;52.97;36.85;;;16.70;99.90;;;;;;5074436;28;20031;-77
2021/06/07 01:44:26;;;;;;;49.13;36.17;;;16.70;99.90;;;;;;5073183;28;20082;-76
2021/06/07 01:46:52;;;;;;;47.50;37.47;;;16.70;99.90;;;;;;5074137;28;20417;-75
2021/06/07 01:49:17;;;;;;;49.60;36.40;;;16.70;99.90;;;;;;5073863;28;20056;-76
2021/06/07 01:51:43;;;;;;;52.83;39.08;;;16.60;99.90;;;;;;5074043;28;20078;-75
2021/06/07 01:54:09;;;;;;;65.20;41.47;;;16.60;99.90;;;;;;5074076;28;20032;-76
2021/06/07 01:56:35;;;;;;;46.17;36.63;;;16.60;99.90;;;;;;5091968;28;20028;-75
2021/06/07 01:59:01;;;;;;;49.33;38.22;;;16.60;99.90;;;;;;5092763;28;20035;-76
2021/06/07 02:01:27;;;;;;;53.95;39.85;;;16.70;99.90;;;;;;5086100;28;20054;-75
2021/06/07 02:03:53;;;;;;;69.13;42.42;;;16.60;99.90;;;;;;5073937;28;20024;-74
2021/06/07 02:06:22;;;;;;;65.88;38.65;;;16.50;99.90;;;;;;5072272;28;20025;-74
2021/06/07 02:08:48;;;;;;;85.10;39.75;;;16.30;99.90;;;;;;5085964;28;20047;-76
2021/06/07 02:11:24;;;;;;;58.75;39.90;;;16.20;99.90;;;;;;5079853;28;20020;-76
2021/06/07 02:13:52;;;;;;;65.25;40.38;;;16.30;99.90;;;;;;5080679;28;20020;-76
2021/06/07 02:16:28;;;;;;;56.15;39.80;;;16.40;99.90;;;;;;5079094;28;20024;-77
2021/06/07 02:18:54;;;;;;;43.30;34.78;;;16.30;99.90;;;;;;5079108;28;20067;-76
2021/06/07 02:21:21;;;;;;;76.28;45.95;;;16.30;99.90;;;;;;5093787;28;20089;-76
2021/06/07 02:23:48;;;;;;;110.82;51.92;;;16.30;99.90;;;;;;5079998;28;20033;-76
2021/06/07 02:26:14;;;;;;;108.10;46.88;;;16.30;99.90;;;;;;5093710;28;20474;-76
2021/06/07 02:28:49;;;;;;;68.55;41.65;;;16.30;99.90;;;;;;5080248;28;20078;-76
2021/06/07 02:31:15;;;;;;;77.82;44.75;;;16.30;99.90;;;;;;5084081;28;20017;-76
2021/06/07 02:33:41;;;;;;;48.30;37.15;;;16.30;99.90;;;;;;5086862;28;20028;-76
2021/06/07 02:36:07;;;;;;;59.72;40.83;;;16.30;99.90;;;;;;5083180;28;20384;-76
2021/06/07 02:38:32;;;;;;;65.13;41.42;;;16.30;99.90;;;;;;5092335;28;20024;-75
2021/06/07 02:40:58;;;;;;;56.10;39.42;;;16.30;99.90;;;;;;5082423;28;20085;-75
2021/06/07 02:43:24;;;;;;;70.65;44.38;;;16.30;99.90;;;;;;5085495;28;20023;-74
2021/06/07 02:45:50;;;;;;;59.65;41.85;;;16.20;99.90;;;;;;5081125;28;20031;-75
2021/06/07 02:48:16;;;;;;;49.45;38.80;;;16.30;99.90;;;;;;5077029;28;20024;-75
2021/06/07 02:50:46;;;;;;;52.42;39.47;;;16.30;99.90;;;;;;5071505;28;20016;-75
2021/06/07 02:53:12;;;;;;;45.08;37.15;;;16.40;99.90;;;;;;5076347;28;20107;-76
2021/06/07 02:55:42;;;;;;;59.25;42.58;;;16.40;99.90;;;;;;5080866;28;20032;-76
2021/06/07 02:58:08;;;;;;;55.33;39.67;;;16.40;99.90;;;;;;5076049;28;20469;-76
2021/06/07 03:00:40;;;;;;;64.75;45.70;;;16.50;99.90;;;;;;5091544;28;20039;-74
2021/06/07 03:03:06;;;;;;;61.05;45.08;;;16.50;99.90;;;;;;5070889;28;20051;-73
2021/06/07 03:05:32;;;;;;;52.70;43.42;;;16.50;99.90;;;;;;5071312;28;20035;-75
2021/06/07 03:07:58;;;;;;;54.00;43.05;;;16.50;99.90;;;;;;5072639;28;20028;-75
2021/06/07 03:10:24;;;;;;;65.07;46.80;;;16.50;99.90;;;;;;5072461;28;20496;-74
2021/06/07 03:12:51;;;;;;;55.67;43.42;;;16.50;99.90;;;;;;5072468;28;20053;-75
2021/06/07 03:15:18;;;;;;;54.15;40.90;;;16.60;99.90;;;;;;5072522;28;20036;-75
2021/06/07 03:17:44;;;;;;;53.47;40.40;;;16.50;99.90;;;;;;5072629;28;20012;-75
2021/06/07 03:20:14;;;;;;;54.47;40.97;;;16.50;99.90;;;;;;5072222;28;20021;-74
2021/06/07 03:22:40;;;;;;;52.67;41.13;;;16.50;99.90;;;;;;5078036;28;20024;-75
2021/06/07 03:25:06;;;;;;;52.55;38.95;;;16.50;99.90;;;;;;5090296;28;20431;-74
2021/06/07 03:27:32;;;;;;;52.88;39.65;;;16.50;99.90;;;;;;5086800;28;20663;-74
2021/06/07 03:29:58;;;;;;;48.95;37.83;;;16.50;99.90;;;;;;5072210;28;20025;-74
2021/06/07 03:32:24;;;;;;;51.40;37.85;;;16.50;99.90;;;;;;5072176;28;20016;-74
2021/06/07 03:34:49;;;;;;;48.15;37.50;;;16.50;99.90;;;;;;5072173;28;20508;-75
2021/06/07 03:37:15;;;;;;;51.50;39.15;;;16.50;99.90;;;;;;5072098;28;20029;-75
2021/06/07 03:39:41;;;;;;;56.00;40.35;;;16.50;99.90;;;;;;5070674;28;20447;-74
2021/06/07 03:42:07;;;;;;;50.33;37.97;;;16.50;99.90;;;;;;5071965;28;20089;-75
2021/06/07 03:44:33;;;;;;;47.58;38.03;;;16.50;99.90;;;;;;5071997;28;20067;-74
2021/06/07 03:46:58;;;;;;;52.58;39.38;;;16.50;99.90;;;;;;5077187;28;20052;-75
2021/06/07 03:49:24;;;;;;;56.35;39.58;;;16.50;99.90;;;;;;5080254;28;20016;-75
2021/06/07 03:51:50;;;;;;;50.42;36.40;;;16.40;99.90;;;;;;5085635;28;20499;-74
2021/06/07 03:54:16;;;;;;;47.67;36.70;;;16.50;99.90;;;;;;5080644;28;20162;-75
2021/06/07 03:56:41;;;;;;;49.10;36.20;;;16.40;99.90;;;;;;5086569;28;20035;-74
2021/06/07 03:59:07;;;;;;;48.63;37.50;;;16.50;99.90;;;;;;5071628;28;20383;-74
2021/06/07 04:01:32;;;;;;;50.65;37.35;;;16.50;99.90;;;;;;5071805;28;20501;-74
2021/06/07 04:03:58;;;;;;;52.65;38.25;;;16.60;99.90;;;;;;5071803;28;20025;-76
2021/06/07 04:06:25;;;;;;;50.90;37.85;;;16.50;99.90;;;;;;5090459;28;20047;-76
2021/06/07 04:08:55;;;;;;;53.28;38.00;;;16.50;99.90;;;;;;5090741;28;20026;-75
2021/06/07 04:11:21;;;;;;;49.70;37.03;;;16.50;99.90;;;;;;5077127;28;20408;-75
2021/06/07 04:13:47;;;;;;;53.92;37.22;;;16.50;99.90;;;;;;5092031;28;20020;-76
2021/06/07 04:16:12;;;;;;;50.72;38.42;;;16.40;99.90;;;;;;5077932;28;20081;-76
2021/06/07 04:18:38;;;;;;;49.80;36.17;;;16.50;99.90;;;;;;5079120;28;20028;-76
2021/06/07 04:21:03;;;;;;;45.92;35.78;;;16.50;99.90;;;;;;5085199;28;20107;-75
2021/06/07 04:23:29;;;;;;;51.38;36.40;;;16.50;99.90;;;;;;5071407;28;20116;-75
2021/06/07 04:25:55;;;;;;;51.47;36.78;;;16.60;99.90;;;;;;5076483;28;20039;-76
2021/06/07 04:28:20;;;;;;;51.00;36.70;;;16.50;99.90;;;;;;5091129;28;20020;-76
2021/06/07 04:30:46;;;;;;;53.28;36.60;;;16.40;99.90;;;;;;5078052;28;20101;-74
2021/06/07 04:33:11;;;;;;;48.97;36.50;;;16.50;99.90;;;;;;5093641;28;20096;-74
2021/06/07 04:35:37;;;;;;;49.72;35.97;;;16.50;99.90;;;;;;5075425;28;20032;-74
2021/06/07 04:38:02;;;;;;;47.22;35.13;;;16.60;99.90;;;;;;5076424;28;20033;-74
2021/06/07 04:40:31;;;;;;;48.50;35.13;;;16.70;99.90;;;;;;5076149;28;20501;-74
2021/06/07 04:42:59;;;;;;;52.05;37.38;;;16.60;99.90;;;;;;5074739;28;20486;-75
2021/06/07 04:45:26;;;;;;;48.25;34.03;;;16.60;99.90;;;;;;5094160;28;20020;-75
2021/06/07 04:47:52;;;;;;;52.92;36.55;;;16.60;99.90;;;;;;5095835;28;20028;-76
2021/06/07 04:50:21;;;;;;;47.45;35.25;;;16.60;99.90;;;;;;5089902;28;20024;-75
2021/06/07 04:52:58;;;;;;;52.83;36.17;;;16.50;99.90;;;;;;5075195;28;20023;-74
2021/06/07 04:55:26;;;;;;;52.50;36.17;;;16.50;99.90;;;;;;5065418;28;20035;-75
2021/06/07 04:57:51;;;;;;;47.72;34.58;;;16.60;99.90;;;;;;5075417;28;20023;-75
2021/06/07 05:00:20;;;;;;;50.65;36.25;;;16.60;99.90;;;;;;5083639;28;20024;-74
2021/06/07 05:02:47;;;;;;;53.42;36.33;;;16.60;99.90;;;;;;5078562;28;20021;-75
2021/06/07 05:05:13;;;;;;;57.03;37.45;;;16.60;99.90;;;;;;5074762;28;20024;-74
2021/06/07 05:07:39;;;;;;;54.88;36.17;;;16.60;99.90;;;;;;5075254;28;20033;-74
2021/06/07 05:10:05;;;;;;;56.50;38.10;;;16.50;99.90;;;;;;5074905;28;20381;-75
2021/06/07 05:12:30;;;;;;;53.08;36.08;;;16.60;99.90;;;;;;5088513;28;20032;-75
2021/06/07 05:14:56;;;;;;;55.97;37.53;;;16.60;99.90;;;;;;5082442;28;20496;-75
2021/06/07 05:17:22;;;;;;;52.15;37.17;;;16.60;99.90;;;;;;5081526;28;20029;-74
2021/06/07 05:19:49;;;;;;;52.30;36.45;;;16.50;99.90;;;;;;5086037;28;20492;-75
2021/06/07 05:22:15;;;;;;;53.60;37.35;;;16.60;99.90;;;;;;5091873;28;20059;-73
2021/06/07 05:24:41;;;;;;;58.15;39.10;;;16.60;99.90;;;;;;5084581;28;20063;-77
2021/06/07 05:27:06;;;;;;;58.70;38.72;;;16.50;99.90;;;;;;5081212;28;20028;-75
2021/06/07 05:29:33;;;;;;;54.20;36.10;;;16.60;99.90;;;;;;5085570;28;20037;-74
2021/06/07 05:31:58;;;;;;;54.40;37.13;;;16.50;99.90;;;;;;5076227;28;20482;-74
2021/06/07 05:34:24;;;;;;;54.53;37.78;;;16.40;99.90;;;;;;5085651;28;20067;-74
2021/06/07 05:36:50;;;;;;;50.03;36.05;;;16.50;99.90;;;;;;5087935;28;20024;-74
2021/06/07 05:39:19;;;;;;;54.03;37.65;;;16.50;99.90;;;;;;5074278;28;20379;-75
2021/06/07 05:41:48;;;;;;;53.47;37.05;;;16.60;99.90;;;;;;5074569;28;20443;-75
2021/06/07 05:44:14;;;;;;;51.35;35.45;;;16.60;99.90;;;;;;5074556;28;20111;-75
2021/06/07 05:46:40;;;;;;;53.70;36.22;;;16.70;99.90;;;;;;5077008;28;20078;-74
2021/06/07 05:49:06;;;;;;;53.35;37.45;;;16.70;99.90;;;;;;5083894;28;20104;-75
2021/06/07 05:51:32;;;;;;;55.80;36.45;;;16.60;99.90;;;;;;5087742;28;20688;-75
2021/06/07 05:53:58;;;;;;;51.38;36.40;;;16.60;99.90;;;;;;5083762;28;20165;-75
2021/06/07 05:56:23;;;;;;;54.45;37.05;;;16.70;99.90;;;;;;5074926;28;20667;-75
2021/06/07 05:58:51;;;;;;;54.45;36.92;;;16.80;99.90;;;;;;5082658;28;20028;-75
2021/06/07 06:01:16;;;;;;;48.05;34.75;;;16.70;99.90;;;;;;5087632;28;20028;-74
2021/06/07 06:03:42;;;;;;;49.42;35.50;;;16.70;99.90;;;;;;5073759;28;20024;-75
2021/06/07 06:06:07;;;;;;;53.05;36.72;;;16.80;99.90;;;;;;5090521;28;20533;-77
2021/06/07 06:08:33;;;;;;;55.60;36.85;;;16.90;99.90;;;;;;5084145;28;20226;-74
2021/06/07 06:10:58;;;;;;;54.28;36.17;;;16.70;99.90;;;;;;5079175;28;20505;-74
2021/06/07 06:13:24;;;;;;;55.45;36.75;;;16.70;99.90;;;;;;5081969;28;20116;-74
2021/06/07 06:15:49;;;;;;;55.13;37.70;;;16.70;99.90;;;;;;5074122;28;20028;-74
2021/06/07 06:18:15;;;;;;;54.45;37.03;;;16.70;99.90;;;;;;5078848;28;20031;-74
2021/06/07 06:20:41;;;;;;;57.05;38.67;;;16.70;99.90;;;;;;5083267;28;20408;-74
2021/06/07 06:23:06;;;;;;;59.30;38.67;;;16.60;99.90;;;;;;5066784;28;20055;-73
2021/06/07 06:25:32;;;;;;;57.17;37.88;;;16.70;99.90;;;;;;5073383;28;20029;-74
2021/06/07 06:27:58;;;;;;;53.63;36.83;;;16.80;99.90;;;;;;5072345;28;20107;-74
2021/06/07 06:30:27;;;;;;;57.25;38.05;;;16.80;99.90;;;;;;5076303;28;20017;-74
2021/06/07 06:32:56;;;;;;;57.03;38.80;;;16.80;99.90;;;;;;5072105;28;20020;-74
2021/06/07 06:35:22;;;;;;;180.95;57.50;;;16.70;99.90;;;;;;5085604;28;20016;-74
2021/06/07 06:37:48;;;;;;;85.40;49.45;;;16.80;99.90;;;;;;5083570;28;20470;-73
2021/06/07 06:40:18;;;;;;;59.53;39.53;;;16.80;99.90;;;;;;5091931;28;20049;-74
2021/06/07 06:42:44;;;;;;;58.33;38.28;;;16.80;99.90;;;;;;5082513;28;20024;-74
2021/06/07 06:45:11;;;;;;;59.58;38.33;;;16.90;99.90;;;;;;5086285;28;20028;-74
2021/06/07 06:47:37;;;;;;;59.80;38.60;;;17.00;99.90;;;;;;5071588;28;20035;-74
2021/06/07 06:50:05;;;;;;;58.50;38.95;;;16.90;99.90;;;;;;5072837;28;20024;-74
2021/06/07 06:52:31;;;;;;;51.95;36.70;;;17.00;99.90;;;;;;5073141;28;20020;-74
2021/06/07 06:54:57;;;;;;;51.42;37.20;;;17.20;99.90;;;;;;5073067;28;20628;-74
2021/06/07 06:57:22;;;;;;;52.78;36.92;;;17.30;99.90;;;;;;5072921;28;20035;-74
2021/06/07 06:59:48;;;;;;;52.67;36.17;;;17.30;99.90;;;;;;5086300;28;20032;-74
2021/06/07 07:02:13;;;;;;;51.55;35.42;;;17.30;99.90;;;;;;5083829;28;20028;-74
2021/06/07 07:04:39;;;;;;;46.47;32.83;;;17.40;99.90;;;;;;5079285;28;20036;-74
2021/06/07 07:07:04;;;;;;;50.75;36.00;;;17.50;99.90;;;;;;5093329;28;20114;-73
2021/06/07 07:09:30;;;;;;;46.50;32.30;;;17.40;99.90;;;;;;5079019;28;20077;-74
2021/06/07 07:11:55;;;;;;;48.15;33.63;;;17.50;99.90;;;;;;5082745;28;20017;-73
2021/06/07 07:14:21;;;;;;;51.40;33.95;;;17.50;99.90;;;;;;5087149;28;20032;-73
2021/06/07 07:16:46;;;;;;;44.78;33.17;;;17.50;99.90;;;;;;5082634;28;20024;-73
2021/06/07 07:19:12;;;;;;;47.13;34.38;;;17.70;99.90;;;;;;5076226;28;20028;-73
2021/06/07 07:21:37;;;;;;;83.57;43.78;;;17.70;99.90;;;;;;5072502;28;20543;-73
2021/06/07 07:24:03;;;;;;;49.72;34.45;;;17.60;99.90;;;;;;5086122;28;20040;-73
2021/06/07 07:26:29;;;;;;;47.03;32.50;;;17.60;99.90;;;;;;5082015;28;20592;-73
2021/06/07 07:28:54;;;;;;;44.92;32.08;;;17.70;99.90;;;;;;5074594;28;20020;-73
2021/06/07 07:31:20;;;;;;;45.75;31.58;;;17.80;99.90;;;;;;5061118;28;20025;-73
2021/06/07 07:33:48;;;;;;;41.53;30.77;;;17.80;99.90;;;;;;5076509;28;20035;-74
2021/06/07 07:36:15;;;;;;;42.08;30.75;;;17.80;99.90;;;;;;5080129;28;20016;-73
2021/06/07 07:38:41;;;;;;;43.65;31.42;;;17.80;99.90;;;;;;5069505;28;20033;-74
2021/06/07 07:41:07;;;;;;;44.88;33.22;;;17.80;99.90;;;;;;5071010;28;20055;-75
2021/06/07 07:43:33;;;;;;;43.08;31.02;;;17.70;99.90;;;;;;5072298;28;20056;-75
2021/06/07 07:45:59;;;;;;;42.40;30.27;;;17.80;99.90;;;;;;5070751;28;20029;-77
2021/06/07 07:48:25;;;;;;;40.65;29.48;;;18.00;99.90;;;;;;5070554;28;20023;-77
2021/06/07 07:50:50;;;;;;;39.63;29.80;;;18.10;99.90;;;;;;5071718;28;20024;-75
2021/06/07 07:53:16;;;;;;;38.90;29.52;;;18.30;99.90;;;;;;5070742;28;20033;-75
2021/06/07 07:55:42;;;;;;;37.72;28.05;;;18.40;99.90;;;;;;5085171;28;20024;-73
2021/06/07 07:58:11;;;;;;;39.45;29.60;;;18.40;99.90;;;;;;5074364;28;20028;-73
2021/06/07 08:00:41;;;;;;;41.97;29.00;;;18.60;99.90;;;;;;5071580;28;20024;-73
2021/06/07 08:03:07;;;;;;;39.50;28.83;;;18.70;99.90;;;;;;5069745;28;20413;-73
2021/06/07 08:05:33;;;;;;;34.15;27.13;;;18.90;99.90;;;;;;5071487;28;20033;-73
2021/06/07 08:07:59;;;;;;;34.97;28.00;;;18.90;99.90;;;;;;5084207;28;20085;-73
2021/06/07 08:10:25;;;;;;;38.08;28.17;;;19.20;99.90;;;;;;5069750;28;20474;-73
2021/06/07 08:12:50;;;;;;;35.05;26.95;;;19.10;99.90;;;;;;5071513;28;20017;-73
2021/06/07 08:15:16;;;;;;;32.45;25.63;;;19.10;99.90;;;;;;5071629;28;20032;-73
2021/06/07 08:17:42;;;;;;;30.83;25.60;;;19.20;99.90;;;;;;5076103;28;20035;-74
2021/06/07 08:20:11;;;;;;;29.70;24.00;;;19.10;99.90;;;;;;5091692;28;20020;-76
2021/06/07 08:22:37;;;;;;;35.13;24.70;;;19.20;99.90;;;;;;5086934;28;20032;-73
2021/06/07 08:25:04;;;;;;;30.40;24.23;;;19.50;99.90;;;;;;5083236;28;20036;-73
2021/06/07 08:27:30;;;;;;;28.08;22.27;;;19.60;99.90;;;;;;5076916;28;20032;-73
2021/06/07 08:29:57;;;;;;;31.05;24.83;;;19.70;99.90;;;;;;5078837;28;20024;-73
2021/06/07 08:32:22;;;;;;;29.77;23.65;;;19.60;99.90;;;;;;5071517;28;20082;-72
2021/06/07 08:34:49;;;;;;;28.33;22.80;;;19.80;99.90;;;;;;5083302;28;20020;-73
2021/06/07 08:37:14;;;;;;;30.05;23.17;;;20.10;99.90;;;;;;5091594;28;20028;-73
2021/06/07 08:39:40;;;;;;;28.42;23.23;;;20.00;99.90;;;;;;5091568;28;20031;-73
2021/06/07 08:42:06;;;;;;;27.88;21.95;;;20.10;99.90;;;;;;5073282;28;20073;-73
2021/06/07 08:44:32;;;;;;;28.58;22.60;;;20.20;99.90;;;;;;5082803;28;20117;-72
2021/06/07 08:46:58;;;;;;;22.80;19.15;;;20.10;99.90;;;;;;5073439;28;20575;-73
2021/06/07 08:49:24;;;;;;;25.08;20.00;;;20.40;99.90;;;;;;5071253;28;20017;-73
2021/06/07 08:51:50;;;;;;;23.35;19.75;;;20.50;99.90;;;;;;5071443;28;20218;-73
2021/06/07 08:54:16;;;;;;;25.38;21.50;;;20.50;99.90;;;;;;5071391;28;20090;-71
2021/06/07 08:56:43;;;;;;;21.90;18.33;;;20.30;99.90;;;;;;5084756;28;20024;-73
2021/06/07 08:59:10;;;;;;;26.38;20.90;;;20.30;99.90;;;;;;5071070;28;20428;-73
2021/06/07 09:01:35;;;;;;;24.45;19.70;;;20.30;99.90;;;;;;5076616;28;20500;-73
2021/06/07 09:04:17;;;;;;;25.08;19.63;;;20.60;99.90;;;;;;5079411;28;20033;-73
2021/06/07 09:06:45;;;;;;;23.83;19.95;;;20.70;99.90;;;;;;5065672;28;20032;-73
2021/06/07 09:09:12;;;;;;;19.88;17.60;;;20.80;99.90;;;;;;5075190;28;20074;-73
2021/06/07 09:11:57;;;;;;;19.23;16.45;;;20.60;99.90;;;;;;5071302;28;20021;-73
2021/06/07 09:14:31;;;;;;;19.80;17.25;;;20.70;99.90;;;;;;5083559;28;20490;-72
2021/06/07 09:16:57;;;;;;;20.10;16.58;;;20.80;99.90;;;;;;5081515;28;20077;-73
2021/06/07 09:19:30;;;;;;;19.08;16.88;;;20.80;99.90;;;;;;5077541;28;20031;-73
2021/06/07 09:22:24;;;;;;;19.02;16.60;;;20.80;99.90;;;;;;5078579;28;20028;-73
2021/06/07 09:25:06;;;;;;;20.05;16.65;;;20.80;99.90;;;;;;5066197;28;20443;-74
2021/06/07 09:27:32;;;;;;;18.70;16.67;;;20.80;99.90;;;;;;5076129;28;20436;-74
2021/06/07 09:29:57;;;;;;;18.40;16.50;;;21.00;99.90;;;;;;5074103;28;20436;-73
2021/06/07 09:32:23;;;;;;;19.65;17.17;;;20.90;99.90;;;;;;5074441;28;20032;-73
2021/06/07 09:35:08;;;;;;;19.60;16.58;;;20.90;99.90;;;;;;5074533;28;20452;-73
2021/06/07 09:37:35;;;;;;;19.58;17.45;;;20.90;99.90;;;;;;5074453;28;20109;-73
2021/06/07 09:40:18;;;;;;;19.45;16.65;;;20.70;99.90;;;;;;5074134;28;20051;-73
2021/06/07 09:42:57;;;;;;;19.15;16.58;;;20.60;99.90;;;;;;5074410;28;20094;-74
2021/06/07 09:45:42;;;;;;;20.45;16.55;;;20.60;99.90;;;;;;5074096;28;20064;-73
2021/06/07 09:48:12;;;;;;;20.67;17.42;;;20.80;99.90;;;;;;5088077;28;20028;-73
2021/06/07 09:50:52;;;;;;;19.75;16.75;;;21.00;99.90;;;;;;5082075;28;20016;-74
2021/06/07 09:53:39;;;;;;;18.80;16.80;;;20.90;99.90;;;;;;5077583;28;20020;-73
2021/06/07 09:56:05;;;;;;;19.02;16.17;;;20.80;99.90;;;;;;5090352;28;20042;-73
2021/06/07 09:58:32;;;;;;;19.42;16.88;;;21.00;99.90;;;;;;5074052;28;20501;-73
2021/06/07 10:00:58;;;;;;;19.50;17.40;;;21.00;99.90;;;;;;5079903;28;20017;-73
2021/06/07 10:03:24;;;;;;;19.42;16.20;;;21.00;99.90;;;;;;5077614;28;20123;-73
2021/06/07 10:05:59;;;;;;;17.35;15.45;;;20.80;99.90;;;;;;5083247;28;20536;-74
2021/06/07 10:08:25;;;;;;;18.88;16.38;;;20.80;99.90;;;;;;5083725;28;20040;-74
2021/06/07 10:10:53;;;;;;;17.33;15.55;;;20.90;99.90;;;;;;5088428;28;20103;-73
2021/06/07 10:13:19;;;;;;;18.35;15.25;;;21.10;99.90;;;;;;5088923;28;20008;-73
2021/06/07 10:15:47;;;;;;;19.33;15.95;;;21.40;99.90;;;;;;5079580;28;20432;-73
2021/06/07 10:18:16;;;;;;;17.60;15.70;;;21.50;99.90;;;;;;5090120;28;20024;-73
2021/06/07 10:20:50;;;;;;;19.08;16.00;;;21.30;99.90;;;;;;5078293;28;20111;-73
2021/06/07 10:23:28;;;;;;;17.70;15.80;;;21.30;99.90;;;;;;5089059;28;20024;-73
2021/06/07 10:25:56;;;;;;;17.90;15.73;;;21.50;99.90;;;;;;5081787;28;20023;-73
2021/06/07 10:28:36;;;;;;;16.95;15.20;;;21.50;99.90;;;;;;5081875;28;20687;-73
2021/06/07 10:31:17;;;;;;;15.95;14.25;;;21.50;99.90;;;;;;5077498;28;20070;-73
2021/06/07 10:34:02;;;;;;;17.40;15.60;;;21.80;99.90;;;;;;5090589;28;20050;-73
2021/06/07 10:36:30;;;;;;;18.52;15.70;;;21.70;99.90;;;;;;5091857;28;20028;-73
2021/06/07 10:39:15;;;;;;;17.55;15.25;;;21.60;99.90;;;;;;5086741;28;20494;-74
2021/06/07 10:41:43;;;;;;;17.42;15.63;;;21.70;99.90;;;;;;5078263;28;20056;-74
2021/06/07 10:44:09;;;;;;;18.88;15.27;;;22.00;99.90;;;;;;5092725;28;20027;-73
2021/06/07 10:46:40;;;;;;;17.45;15.07;;;22.30;99.90;;;;;;5086612;28;20020;-73
2021/06/07 10:49:37;;;;;;;16.65;14.95;;;22.20;99.90;;;;;;5087086;28;20103;-73
2021/06/07 10:52:08;;;;;;;16.45;14.85;;;22.00;99.90;;;;;;5088205;28;20099;-73
2021/06/07 10:54:36;;;;;;;16.33;14.40;;;22.20;99.90;;;;;;5088192;28;20073;-73
2021/06/07 10:57:27;;;;;;;18.10;15.60;;;22.50;99.90;;;;;;5086354;28;20034;-73
2021/06/07 10:59:58;;;;;;;15.43;13.73;;;22.60;99.90;;;;;;5079134;28;20095;-73
2021/06/07 11:02:26;;;;;;;16.75;15.00;;;23.10;99.90;;;;;;5087186;28;20481;-73
2021/06/07 11:05:08;;;;;;;16.20;14.20;;;23.20;99.90;;;;;;5086643;28;20077;-73
2021/06/07 11:07:35;;;;;;;15.45;13.95;;;23.80;99.90;;;;;;5068155;28;20031;-73
2021/06/07 11:10:21;;;;;;;17.63;15.73;;;23.50;99.90;;;;;;5086470;28;20532;-73
2021/06/07 11:12:48;;;;;;;21.38;14.88;;;23.10;99.90;;;;;;5083014;28;20024;-73
2021/06/07 11:15:27;;;;;;;16.80;14.32;;;23.40;99.90;;;;;;5082165;28;20570;-73
2021/06/07 11:18:26;;;;;;;16.48;14.77;;;23.50;99.90;;;;;;5087566;28;20034;-73
2021/06/07 11:20:56;;;;;;;18.52;14.40;;;23.60;99.90;;;;;;5075651;28;20021;-73
2021/06/07 11:23:42;;;;;;;15.20;13.43;;;23.80;99.90;;;;;;5086934;28;20031;-74
2021/06/07 11:26:13;;;;;;;16.50;13.93;;;24.30;99.90;;;;;;5084348;28;20023;-74
2021/06/07 11:28:43;;;;;;;17.77;15.13;;;24.30;99.90;;;;;;5086100;28;20128;-74
2021/06/07 11:31:14;;;;;;;14.40;13.00;;;23.80;99.90;;;;;;5088612;28;20027;-74
2021/06/07 11:33:55;;;;;;;17.45;13.93;;;24.30;99.90;;;;;;5080790;28;20397;-74
2021/06/07 11:36:47;;;;;;;15.48;13.73;;;24.70;99.90;;;;;;5088955;28;20031;-74
2021/06/07 11:39:21;;;;;;;17.88;13.65;;;24.70;99.90;;;;;;5077805;28;20020;-74
2021/06/07 11:41:53;;;;;;;16.30;13.63;;;24.60;99.90;;;;;;5080907;28;20544;-74
2021/06/07 11:44:40;;;;;;;15.45;13.57;;;24.50;99.90;;;;;;5088841;28;20438;-74
2021/06/07 11:47:06;;;;;;;18.90;14.30;;;24.90;99.90;;;;;;5068980;28;20033;-74
2021/06/07 11:49:32;;;;;;;14.88;13.48;;;25.00;99.90;;;;;;5086898;28;20019;-74
2021/06/07 11:52:00;;;;;;;14.57;13.10;;;24.60;99.90;;;;;;5080218;28;20073;-71
2021/06/07 11:54:26;;;;;;;15.05;13.45;;;24.90;99.90;;;;;;5087059;28;20035;-74
2021/06/07 11:56:56;;;;;;;15.02;13.30;;;24.30;99.90;;;;;;5072306;28;20029;-73
2021/06/07 11:59:26;;;;;;;15.25;13.25;;;24.60;99.90;;;;;;5076455;28;20024;-73
2021/06/07 12:01:51;;;;;;;14.63;13.13;;;24.70;99.90;;;;;;5079947;28;20028;-72
2021/06/07 12:04:24;;;;;;;15.35;13.05;;;24.30;99.90;;;;;;5089392;28;20479;-73
2021/06/07 12:06:50;;;;;;;16.95;14.43;;;24.10;99.90;;;;;;5071667;28;20043;-73
2021/06/07 12:09:19;;;;;;;15.52;13.93;;;24.30;99.90;;;;;;5085411;28;20036;-73
2021/06/07 12:11:45;;;;;;;15.95;14.25;;;24.50;99.90;;;;;;5081077;28;20482;-73
2021/06/07 12:14:11;;;;;;;14.73;13.23;;;24.90;99.90;;;;;;5076910;28;20050;-73
2021/06/07 12:16:38;;;;;;;14.50;12.98;;;24.50;99.90;;;;;;5091900;28;20451;-73
2021/06/07 12:19:11;;;;;;;14.73;13.23;;;24.80;99.90;;;;;;5076984;28;20490;-73
2021/06/07 12:21:36;;;;;;;17.38;13.23;;;24.30;99.90;;;;;;5080340;28;20080;-73
2021/06/07 12:24:07;;;;;;;14.73;12.95;;;24.30;99.90;;;;;;5071596;28;20055;-73
2021/06/07 12:29:31;;;;;;;14.90;13.30;;;24.00;99.90;;;;;;5058740;28;20089;-73
2021/06/07 12:32:06;;;;;;;15.18;13.75;;;24.40;99.90;;;;;;5071680;28;20055;-73
2021/06/07 12:34:32;;;;;;;15.73;14.10;;;24.70;99.90;;;;;;5070476;28;20028;-73